createdAt,value
2022-08-20T00:02:13.461Z,18.72
2022-08-20T00:04:41.225Z,18.73
2022-08-20T00:07:08.773Z,18.74
2022-08-20T00:09:36.674Z,18.73
2022-08-20T00:12:05.199Z,18.73
2022-08-20T00:14:33.875Z,18.72
2022-08-20T00:17:03.075Z,18.73
2022-08-20T00:19:30.636Z,18.72
2022-08-20T00:21:58.702Z,18.69
2022-08-20T00:24:26.708Z,18.68
2022-08-20T00:26:54.260Z,18.64
2022-08-20T00:29:22.450Z,18.60
2022-08-20T00:31:50.379Z,18.57
2022-08-20T00:34:19.495Z,18.54
2022-08-20T00:36:47.050Z,18.51
2022-08-20T00:39:14.609Z,18.45
2022-08-20T00:41:42.194Z,18.41
2022-08-20T00:44:13.239Z,18.37
2022-08-20T00:46:41.207Z,18.32
2022-08-20T00:49:09.838Z,18.30
2022-08-20T00:51:40.961Z,18.27
2022-08-20T00:54:12.019Z,18.23
2022-08-20T00:56:40.738Z,18.19
2022-08-20T00:59:11.610Z,18.14
2022-08-20T01:01:54.933Z,18.08
2022-08-20T01:04:25.087Z,18.03
2022-08-20T01:06:54.323Z,17.97
2022-08-20T01:09:50.231Z,17.90
2022-08-20T01:12:10.563Z,17.84
2022-08-20T01:14:43.642Z,17.80
2022-08-20T01:17:14.785Z,17.77
2022-08-20T01:19:44.168Z,17.73
2022-08-20T01:22:32.919Z,17.72
2022-08-20T01:25:05.147Z,17.70
2022-08-20T01:27:34.994Z,17.68
2022-08-20T01:30:10.632Z,17.66
2022-08-20T01:32:38.298Z,17.65
2022-08-20T01:35:06.590Z,17.62
2022-08-20T01:37:34.244Z,17.58
2022-08-20T01:40:02.991Z,17.54
2022-08-20T01:42:33.990Z,17.49
2022-08-20T01:45:04.229Z,17.45
2022-08-20T01:47:33.666Z,17.43
2022-08-20T01:50:08.954Z,17.39
2022-08-20T01:52:41.295Z,17.35
2022-08-20T01:55:09.456Z,17.31
2022-08-20T01:57:38.182Z,17.25
2022-08-20T02:00:19.058Z,17.18
2022-08-20T02:02:49.348Z,17.12
2022-08-20T02:05:16.896Z,17.07
2022-08-20T02:07:44.489Z,17.02
2022-08-20T02:10:13.680Z,16.96
2022-08-20T02:12:41.620Z,16.90
2022-08-20T02:15:11.622Z,16.83
2022-08-20T02:17:39.942Z,16.78
2022-08-20T02:20:11.709Z,16.74
2022-08-20T02:22:49.233Z,16.67
2022-08-20T02:25:18.837Z,16.63
2022-08-20T02:27:48.678Z,16.56
2022-08-20T02:30:28.248Z,16.50
2022-08-20T02:32:56.360Z,16.46
2022-08-20T02:35:24.227Z,16.41
2022-08-20T02:37:52.635Z,16.36
2022-08-20T02:40:27.258Z,16.31
2022-08-20T02:42:59.454Z,16.26
2022-08-20T02:45:28.997Z,16.22
2022-08-20T02:47:57.625Z,16.17
2022-08-20T02:50:26.019Z,16.12
2022-08-20T02:52:53.606Z,16.08
2022-08-20T02:55:27.735Z,16.04
2022-08-20T02:57:58.636Z,16.02
2022-08-20T03:00:30.560Z,15.98
2022-08-20T03:03:06.312Z,15.93
2022-08-20T03:05:34.028Z,15.90
2022-08-20T03:08:01.566Z,15.85
2022-08-20T03:10:30.406Z,15.80
2022-08-20T03:12:59.701Z,15.77
2022-08-20T03:15:28.856Z,15.73
2022-08-20T03:17:56.924Z,15.70
2022-08-20T03:20:25.078Z,15.66
2022-08-20T03:22:53.457Z,15.59
2022-08-20T03:25:21.338Z,15.55
2022-08-20T03:27:53.967Z,15.51
2022-08-20T03:30:21.981Z,15.47
2022-08-20T03:32:50.899Z,15.44
2022-08-20T03:35:19.380Z,15.41
2022-08-20T03:37:48.465Z,15.37
2022-08-20T03:40:17.993Z,15.33
2022-08-20T03:42:45.587Z,15.30
2022-08-20T03:45:17.113Z,15.26
2022-08-20T03:47:47.478Z,15.22
2022-08-20T03:50:23.740Z,15.18
2022-08-20T03:52:51.479Z,15.12
2022-08-20T03:55:19.050Z,15.10
2022-08-20T03:57:46.960Z,15.06
2022-08-20T04:00:15.893Z,15.03
2022-08-20T04:02:43.445Z,15.00
2022-08-20T04:05:11.037Z,14.95
2022-08-20T04:07:40.423Z,14.91
2022-08-20T04:10:09.828Z,14.88
2022-08-20T04:12:40.839Z,14.83
2022-08-20T04:15:18.642Z,14.79
2022-08-20T04:17:47.645Z,14.75
2022-08-20T04:20:18.317Z,14.73
2022-08-20T04:22:58.519Z,14.69
2022-08-20T04:25:26.544Z,14.67
2022-08-20T04:27:54.556Z,14.65
2022-08-20T04:30:25.560Z,14.62
2022-08-20T04:32:53.224Z,14.60
2022-08-20T04:35:24.323Z,14.59
2022-08-20T04:37:58.749Z,14.58
2022-08-20T04:40:43.781Z,14.55
2022-08-20T04:43:12.381Z,14.51
2022-08-20T04:45:40.259Z,14.48
2022-08-20T04:48:11.676Z,14.47
2022-08-20T04:50:43.782Z,14.45
2022-08-20T04:53:13.361Z,14.43
2022-08-20T04:55:42.665Z,14.41
2022-08-20T04:58:12.442Z,14.42
2022-08-20T05:00:40.161Z,14.39
2022-08-20T05:03:08.015Z,14.39
2022-08-20T05:05:36.115Z,14.39
2022-08-20T05:08:04.086Z,14.39
2022-08-20T05:10:32.993Z,14.38
2022-08-20T05:13:00.558Z,14.39
2022-08-20T05:15:28.125Z,14.37
2022-08-20T05:17:57.213Z,14.39
2022-08-20T05:20:24.977Z,14.37
2022-08-20T05:22:54.397Z,14.40
2022-08-20T05:25:21.970Z,14.42
2022-08-20T05:27:50.857Z,14.47
2022-08-20T05:30:20.111Z,14.50
2022-08-20T05:32:49.220Z,14.54
2022-08-20T05:35:16.996Z,14.57
2022-08-20T05:37:45.893Z,14.61
2022-08-20T05:40:14.956Z,14.65
2022-08-20T05:42:43.334Z,14.72
2022-08-20T05:45:12.555Z,14.76
2022-08-20T05:47:42.914Z,14.82
2022-08-20T05:50:11.388Z,14.89
2022-08-20T05:52:48.337Z,14.94
2022-08-20T05:55:16.152Z,14.99
2022-08-20T05:57:45.660Z,15.07
2022-08-20T06:00:15.600Z,15.16
2022-08-20T06:03:00.589Z,15.24
2022-08-20T06:05:28.335Z,15.33
2022-08-20T06:08:07.312Z,15.39
2022-08-20T06:10:36.158Z,15.46
2022-08-20T06:13:03.930Z,15.52
2022-08-20T06:15:32.999Z,15.60
2022-08-20T06:18:06.151Z,15.69
2022-08-20T06:20:51.388Z,15.76
2022-08-20T06:23:19.984Z,15.84
2022-08-20T06:25:50.117Z,15.94
2022-08-20T06:28:17.841Z,16.06
2022-08-20T06:30:46.974Z,16.19
2022-08-20T06:33:14.503Z,16.29
2022-08-20T06:35:42.179Z,16.41
2022-08-20T06:38:10.629Z,16.59
2022-08-20T06:40:38.222Z,16.90
2022-08-20T06:43:09.791Z,17.31
2022-08-20T06:45:38.898Z,17.77
2022-08-20T06:48:08.965Z,18.31
2022-08-20T06:50:43.248Z,18.94
2022-08-20T06:53:16.347Z,19.62
2022-08-20T06:55:48.626Z,20.18
2022-08-20T06:58:26.788Z,20.82
2022-08-20T07:01:09.948Z,21.66
2022-08-20T07:03:54.146Z,22.40
2022-08-20T07:06:22.817Z,23.13
2022-08-20T07:08:50.401Z,23.78
2022-08-20T07:11:18.011Z,24.43
2022-08-20T07:13:45.536Z,25.02
2022-08-20T07:16:13.170Z,25.62
2022-08-20T07:18:42.112Z,26.08
2022-08-20T07:21:09.678Z,26.51
2022-08-20T07:23:37.229Z,26.94
2022-08-20T07:26:05.464Z,27.19
2022-08-20T07:28:33.014Z,27.20
2022-08-20T07:31:20.296Z,27.09
2022-08-20T07:33:50.476Z,27.40
2022-08-20T07:36:19.574Z,27.91
2022-08-20T07:38:47.996Z,28.12
2022-08-20T07:41:15.776Z,28.19
2022-08-20T07:43:45.140Z,28.30
2022-08-20T07:46:13.556Z,28.51
2022-08-20T07:48:42.293Z,28.66
2022-08-20T07:51:11.767Z,28.72
2022-08-20T07:53:42.370Z,28.72
2022-08-20T07:56:12.798Z,28.74
2022-08-20T07:58:42.563Z,28.88
2022-08-20T08:01:10.674Z,28.96
2022-08-20T08:03:48.889Z,29.15
2022-08-20T08:06:29.198Z,29.41
2022-08-20T08:08:58.878Z,29.78
2022-08-20T08:11:26.510Z,29.94
2022-08-20T08:13:54.567Z,29.89
2022-08-20T08:16:22.203Z,29.76
2022-08-20T08:18:51.255Z,29.81
2022-08-20T08:21:22.340Z,29.95
2022-08-20T08:23:50.288Z,29.98
2022-08-20T08:26:19.409Z,30.25
2022-08-20T08:28:47.524Z,30.41
2022-08-20T08:31:15.763Z,30.45
2022-08-20T08:33:43.597Z,30.57
2022-08-20T08:36:12.341Z,30.72
2022-08-20T08:38:44.184Z,30.66
2022-08-20T08:41:14.725Z,30.63
2022-08-20T08:43:43.129Z,30.69
2022-08-20T08:46:11.961Z,30.46
2022-08-20T08:48:44.423Z,30.52
2022-08-20T08:51:12.937Z,30.39
2022-08-20T08:53:43.369Z,30.38
2022-08-20T08:56:11.503Z,30.60
2022-08-20T08:58:40.008Z,30.91
2022-08-20T09:01:52.928Z,31.28
2022-08-20T09:04:00.327Z,31.56
2022-08-20T09:06:28.239Z,31.75
2022-08-20T09:08:59.003Z,31.89
2022-08-20T09:11:26.981Z,31.98
2022-08-20T09:13:55.180Z,31.77
2022-08-20T09:16:23.297Z,31.02
2022-08-20T09:18:51.410Z,30.58
2022-08-20T09:21:20.579Z,30.39
2022-08-20T09:23:48.325Z,30.03
2022-08-20T09:26:17.317Z,29.74
2022-08-20T09:28:47.892Z,29.50
2022-08-20T09:31:20.042Z,29.48
2022-08-20T09:33:51.357Z,29.63
2022-08-20T09:36:31.731Z,29.62
2022-08-20T09:39:00.545Z,29.45
2022-08-20T09:41:34.317Z,29.75
2022-08-20T09:44:02.414Z,30.06
2022-08-20T09:46:29.981Z,30.32
2022-08-20T09:48:59.537Z,30.40
2022-08-20T09:51:27.539Z,30.40
2022-08-20T09:53:55.889Z,30.30
2022-08-20T09:56:25.209Z,30.23
2022-08-20T09:58:57.191Z,30.27
2022-08-20T10:01:26.839Z,30.10
2022-08-20T10:03:54.401Z,29.87
2022-08-20T10:06:21.985Z,29.65
2022-08-20T10:08:50.139Z,29.42
2022-08-20T10:11:18.332Z,29.39
2022-08-20T10:13:45.916Z,29.14
2022-08-20T10:16:15.564Z,29.02
2022-08-20T10:18:43.134Z,28.98
2022-08-20T10:21:11.771Z,28.88
2022-08-20T10:23:40.544Z,28.98
2022-08-20T10:26:08.492Z,28.87
2022-08-20T10:28:36.342Z,28.56
2022-08-20T10:31:06.363Z,28.59
2022-08-20T10:33:37.048Z,28.45
2022-08-20T10:36:07.229Z,28.38
2022-08-20T10:38:34.768Z,28.55
2022-08-20T10:41:02.369Z,28.31
2022-08-20T10:43:30.305Z,27.92
2022-08-20T10:45:58.209Z,27.57
2022-08-20T10:48:26.096Z,27.63
2022-08-20T10:50:55.697Z,27.73
2022-08-20T10:53:25.968Z,27.61
2022-08-20T10:55:54.371Z,27.51
2022-08-20T10:58:24.020Z,27.48
2022-08-20T11:00:52.073Z,27.36
2022-08-20T11:03:20.024Z,27.22
2022-08-20T11:05:48.067Z,27.14
2022-08-20T11:08:33.763Z,27.02
2022-08-20T11:11:02.323Z,26.87
2022-08-20T11:13:29.883Z,26.81
2022-08-20T11:15:57.644Z,26.75
2022-08-20T11:18:25.209Z,26.80
2022-08-20T11:20:52.797Z,27.05
2022-08-20T11:23:21.988Z,27.19
2022-08-20T11:25:49.929Z,27.24
2022-08-20T11:28:31.229Z,27.15
2022-08-20T11:31:00.648Z,27.18
2022-08-20T11:33:28.331Z,26.99
2022-08-20T11:35:55.873Z,26.91
2022-08-20T11:38:24.893Z,27.02
2022-08-20T11:40:52.570Z,27.17
2022-08-20T11:43:20.206Z,27.19
2022-08-20T11:45:50.586Z,27.09
2022-08-20T11:48:18.261Z,27.32
2022-08-20T11:50:45.945Z,27.45
2022-08-20T11:53:14.866Z,27.54
2022-08-20T11:55:44.303Z,27.27
2022-08-20T11:58:12.108Z,27.09
2022-08-20T12:00:39.805Z,26.97
2022-08-20T12:03:09.459Z,27.00
2022-08-20T12:05:37.435Z,27.09
2022-08-20T12:08:05.307Z,27.14
2022-08-20T12:10:33.134Z,27.21
2022-08-20T12:13:02.734Z,27.14
2022-08-20T12:15:32.437Z,26.93
2022-08-20T12:18:00.907Z,26.69
2022-08-20T12:20:29.040Z,26.65
2022-08-20T12:22:59.136Z,26.84
2022-08-20T12:25:26.846Z,27.02
2022-08-20T12:27:54.708Z,27.03
2022-08-20T12:30:25.439Z,27.17
2022-08-20T12:32:53.554Z,27.35
2022-08-20T12:35:21.941Z,27.38
2022-08-20T12:37:49.780Z,27.29
2022-08-20T12:40:24.528Z,27.24
2022-08-20T12:43:00.625Z,27.06
2022-08-20T12:45:29.952Z,26.95
2022-08-20T12:48:02.121Z,26.82
2022-08-20T12:50:32.031Z,26.75
2022-08-20T12:52:59.919Z,26.78
2022-08-20T12:55:27.993Z,26.83
2022-08-20T12:57:57.338Z,26.81
2022-08-20T13:00:26.646Z,26.72
2022-08-20T13:02:57.069Z,26.57
2022-08-20T13:05:25.233Z,26.59
2022-08-20T13:07:54.022Z,26.47
2022-08-20T13:10:23.371Z,26.26
2022-08-20T13:12:51.252Z,26.13
2022-08-20T13:15:18.911Z,26.21
2022-08-20T13:17:46.479Z,26.40
2022-08-20T13:20:17.103Z,26.62
2022-08-20T13:22:45.599Z,26.83
2022-08-20T13:25:14.701Z,27.05
2022-08-20T13:27:43.404Z,27.06
2022-08-20T13:30:12.474Z,27.07
2022-08-20T13:32:40.039Z,27.24
2022-08-20T13:35:07.985Z,27.29
2022-08-20T13:37:36.968Z,27.34
2022-08-20T13:40:05.804Z,27.20
2022-08-20T13:42:33.483Z,26.98
2022-08-20T13:45:01.018Z,26.90
2022-08-20T13:47:29.668Z,27.00
2022-08-20T13:49:57.745Z,27.05
2022-08-20T13:52:25.336Z,26.99
2022-08-20T13:54:55.054Z,26.92
2022-08-20T13:57:23.763Z,26.75
2022-08-20T13:59:52.330Z,26.47
2022-08-20T14:02:20.425Z,26.32
2022-08-20T14:04:48.781Z,26.32
2022-08-20T14:07:17.624Z,26.27
2022-08-20T14:09:46.060Z,26.13
2022-08-20T14:12:15.390Z,25.98
2022-08-20T14:14:43.389Z,25.81
2022-08-20T14:17:15.123Z,25.73
2022-08-20T14:19:43.227Z,25.56
2022-08-20T14:22:10.803Z,25.49
2022-08-20T14:24:38.348Z,25.55
2022-08-20T14:27:06.113Z,25.54
2022-08-20T14:29:36.909Z,25.52
2022-08-20T14:32:05.246Z,25.64
2022-08-20T14:34:33.173Z,25.76
2022-08-20T14:37:10.160Z,25.81
2022-08-20T14:39:37.765Z,25.57
2022-08-20T14:42:05.888Z,25.56
2022-08-20T14:44:38.503Z,25.62
2022-08-20T14:47:16.550Z,25.58
2022-08-20T14:49:45.936Z,25.57
2022-08-20T14:52:13.827Z,25.57
2022-08-20T14:54:41.836Z,25.50
2022-08-20T14:57:13.433Z,25.33
2022-08-20T14:59:43.033Z,25.34
2022-08-20T15:02:11.658Z,25.31
2022-08-20T15:04:39.268Z,25.24
2022-08-20T15:07:14.778Z,25.18
2022-08-20T15:09:44.030Z,25.10
2022-08-20T15:12:11.580Z,25.05
2022-08-20T15:14:39.385Z,25.08
2022-08-20T15:17:10.565Z,25.14
2022-08-20T15:19:38.120Z,25.13
2022-08-20T15:22:05.835Z,25.08
2022-08-20T15:24:33.371Z,24.93
2022-08-20T15:27:10.599Z,24.83
2022-08-20T15:29:38.173Z,24.87
2022-08-20T15:32:07.137Z,24.90
2022-08-20T15:34:36.053Z,24.82
2022-08-20T15:37:07.350Z,24.87
2022-08-20T15:39:34.966Z,24.88
2022-08-20T15:42:02.861Z,24.86
2022-08-20T15:44:31.166Z,24.82
2022-08-20T15:47:13.390Z,24.60
2022-08-20T15:49:43.158Z,24.51
2022-08-20T15:52:12.755Z,24.48
2022-08-20T15:54:41.315Z,24.45
2022-08-20T15:57:12.810Z,24.31
2022-08-20T15:59:57.565Z,24.13
2022-08-20T16:02:55.350Z,24.11
2022-08-20T16:05:29.022Z,24.02
2022-08-20T16:08:03.125Z,23.99
2022-08-20T16:10:34.493Z,23.91
2022-08-20T16:13:03.650Z,23.88
2022-08-20T16:15:32.727Z,23.87
2022-08-20T16:18:04.066Z,23.82
2022-08-20T16:20:35.883Z,23.80
2022-08-20T16:23:04.452Z,23.72
2022-08-20T16:25:35.313Z,23.56
2022-08-20T16:28:05.814Z,23.57
2022-08-20T16:30:38.133Z,23.60
2022-08-20T16:33:09.133Z,23.65
2022-08-20T16:35:42.751Z,23.57
2022-08-20T16:38:20.862Z,23.45
2022-08-20T16:40:51.196Z,23.26
2022-08-20T16:43:21.723Z,23.10
2022-08-20T16:45:51.636Z,23.06
2022-08-20T16:48:20.095Z,23.02
2022-08-20T16:50:53.800Z,23.01
2022-08-20T16:53:22.615Z,22.98
2022-08-20T16:55:50.166Z,23.01
2022-08-20T16:58:17.847Z,22.90
2022-08-20T17:00:45.971Z,22.80
2022-08-20T17:03:33.546Z,22.51
2022-08-20T17:06:15.719Z,22.24
2022-08-20T17:08:48.427Z,22.11
2022-08-20T17:11:24.611Z,21.99
2022-08-20T17:14:02.533Z,21.85
2022-08-20T17:16:33.569Z,21.72
2022-08-20T17:19:08.494Z,21.62
2022-08-20T17:21:38.815Z,21.60
2022-08-20T17:24:10.338Z,21.55
2022-08-20T17:26:45.938Z,21.44
2022-08-20T17:29:14.915Z,21.34
2022-08-20T17:31:44.106Z,21.21
2022-08-20T17:34:15.116Z,21.12
2022-08-20T17:36:50.924Z,21.01
2022-08-20T17:39:19.355Z,20.91
2022-08-20T17:41:48.500Z,20.81
2022-08-20T17:44:21.794Z,20.76
2022-08-20T17:46:49.944Z,20.76
2022-08-20T17:49:19.231Z,20.73
2022-08-20T17:51:48.470Z,20.69
2022-08-20T17:54:22.136Z,20.68
2022-08-20T17:56:53.278Z,20.62
2022-08-20T17:59:33.679Z,20.58
2022-08-20T18:02:14.178Z,20.53
2022-08-20T18:04:41.826Z,20.50
2022-08-20T18:07:12.930Z,20.45
2022-08-20T18:09:46.697Z,20.41
2022-08-20T18:12:24.242Z,20.34
2022-08-20T18:15:06.895Z,20.22
2022-08-20T18:17:46.025Z,20.15
2022-08-20T18:20:25.780Z,20.06
2022-08-20T18:22:56.501Z,19.99
2022-08-20T18:25:31.230Z,19.97
2022-08-20T18:28:04.027Z,19.94
2022-08-20T18:30:33.070Z,19.91
2022-08-20T18:33:03.085Z,19.87
2022-08-20T18:35:33.998Z,19.83
2022-08-20T18:38:12.450Z,19.79
2022-08-20T18:40:41.665Z,19.72
2022-08-20T18:43:13.842Z,19.69
2022-08-20T18:45:41.775Z,19.68
2022-08-20T18:48:20.633Z,19.62
2022-08-20T18:50:53.278Z,19.58
2022-08-20T18:53:24.970Z,19.55
2022-08-20T18:56:02.866Z,19.52
2022-08-20T18:58:31.272Z,19.48
2022-08-20T19:00:59.144Z,19.46
2022-08-20T19:03:31.071Z,19.44
2022-08-20T19:06:18.564Z,19.40
2022-08-20T19:08:50.594Z,19.37
2022-08-20T19:11:33.022Z,19.32
2022-08-20T19:14:10.507Z,19.29
2022-08-20T19:16:40.586Z,19.28
2022-08-20T19:19:14.658Z,19.30
2022-08-20T19:21:42.745Z,19.28
2022-08-20T19:24:12.582Z,19.27
2022-08-20T19:26:42.444Z,19.24
2022-08-20T19:29:13.601Z,19.20
2022-08-20T19:31:41.656Z,19.17
2022-08-20T19:34:19.982Z,19.15
2022-08-20T19:36:54.093Z,19.16
2022-08-20T19:39:25.683Z,19.15
2022-08-20T19:41:57.344Z,19.13
2022-08-20T19:44:29.669Z,19.12
2022-08-20T19:46:57.641Z,19.07
2022-08-20T19:49:30.094Z,19.04
2022-08-20T19:52:08.995Z,19.02
2022-08-20T19:54:44.749Z,19.00
2022-08-20T19:57:12.389Z,19.01
2022-08-20T19:59:51.112Z,19.01
2022-08-20T20:02:20.519Z,18.99
2022-08-20T20:04:55.322Z,18.99
2022-08-20T20:07:25.191Z,18.99
2022-08-20T20:09:54.469Z,18.98
2022-08-20T20:12:23.210Z,18.97
2022-08-20T20:14:53.856Z,18.97
2022-08-20T20:17:23.731Z,18.96
2022-08-20T20:19:53.363Z,18.95
2022-08-20T20:22:25.102Z,18.92
2022-08-20T20:24:58.878Z,18.91
2022-08-20T20:27:28.714Z,18.90
2022-08-20T20:30:01.261Z,18.89
2022-08-20T20:32:28.922Z,18.89
2022-08-20T20:34:58.020Z,18.87
2022-08-20T20:37:46.691Z,18.84
2022-08-20T20:40:20.886Z,18.81
2022-08-20T20:42:57.736Z,18.80
2022-08-20T20:45:31.528Z,18.79
2022-08-20T20:47:59.196Z,18.77
2022-08-20T20:50:28.522Z,18.75
2022-08-20T20:52:56.624Z,18.74
2022-08-20T20:55:25.964Z,18.72
2022-08-20T20:57:54.102Z,18.71
2022-08-20T21:00:23.006Z,18.68
2022-08-20T21:02:52.239Z,18.67
2022-08-20T21:05:22.475Z,18.65
2022-08-20T21:07:53.775Z,18.65
2022-08-20T21:10:22.541Z,18.63
2022-08-20T21:12:52.852Z,18.61
2022-08-20T21:15:21.533Z,18.58
2022-08-20T21:17:49.186Z,18.56
2022-08-20T21:20:18.204Z,18.47
2022-08-20T21:22:45.812Z,18.35
2022-08-20T21:25:13.514Z,18.24
2022-08-20T21:27:44.440Z,18.17
2022-08-20T21:30:12.624Z,18.10
2022-08-20T21:32:40.227Z,18.08
2022-08-20T21:35:08.494Z,18.06
2022-08-20T21:37:37.712Z,18.02
2022-08-20T21:40:06.106Z,17.97
2022-08-20T21:42:33.740Z,17.87
2022-08-20T21:45:05.041Z,17.81
2022-08-20T21:47:32.607Z,17.76
2022-08-20T21:50:00.389Z,17.75
2022-08-20T21:52:27.931Z,17.75
2022-08-20T21:54:57.032Z,17.67
2022-08-20T21:57:26.694Z,17.57
2022-08-20T21:59:54.737Z,17.52
2022-08-20T22:02:25.317Z,17.49
2022-08-20T22:04:53.857Z,17.47
2022-08-20T22:07:22.211Z,17.46
2022-08-20T22:09:49.744Z,17.46
2022-08-20T22:12:20.499Z,17.46
2022-08-20T22:14:48.347Z,17.44
2022-08-20T22:17:16.221Z,17.44
2022-08-20T22:19:43.739Z,17.43
2022-08-20T22:22:12.011Z,17.44
2022-08-20T22:24:40.042Z,17.47
2022-08-20T22:27:07.783Z,17.49
2022-08-20T22:29:36.705Z,17.47
2022-08-20T22:32:05.184Z,17.45
2022-08-20T22:34:33.844Z,17.43
2022-08-20T22:37:02.236Z,17.41
2022-08-20T22:39:29.800Z,17.40
2022-08-20T22:41:57.531Z,17.40
2022-08-20T22:44:25.175Z,17.37
2022-08-20T22:46:56.889Z,17.34
2022-08-20T22:49:27.105Z,17.28
2022-08-20T22:51:54.911Z,17.23
2022-08-20T22:54:24.786Z,17.21
2022-08-20T22:56:53.209Z,17.20
2022-08-20T22:59:21.065Z,17.21
2022-08-20T23:01:48.890Z,17.22
2022-08-20T23:04:20.575Z,17.21
2022-08-20T23:06:48.215Z,17.21
2022-08-20T23:09:15.810Z,17.19
2022-08-20T23:11:49.118Z,17.20
2022-08-20T23:14:16.714Z,17.19
2022-08-20T23:16:46.097Z,17.17
2022-08-20T23:19:14.799Z,17.12
2022-08-20T23:21:43.699Z,17.10
2022-08-20T23:24:14.384Z,17.07
2022-08-20T23:26:44.717Z,17.07
2022-08-20T23:29:25.452Z,17.02
2022-08-20T23:31:53.673Z,17.01
2022-08-20T23:34:21.247Z,17.00
2022-08-20T23:36:52.302Z,16.98
2022-08-20T23:39:20.144Z,16.98
2022-08-20T23:41:48.256Z,17.01
2022-08-20T23:44:25.937Z,17.09
2022-08-20T23:46:55.353Z,17.08
2022-08-20T23:49:23.007Z,17.05
2022-08-20T23:51:52.150Z,17.04
2022-08-20T23:54:19.741Z,17.07
2022-08-20T23:56:47.476Z,17.05
2022-08-20T23:59:15.035Z,17.05
